createdAt,value
2017-12-06T00:00:43.128Z,0
2017-12-06T00:01:52.850Z,0
2017-12-06T00:03:02.829Z,0
2017-12-06T00:04:12.813Z,0
2017-12-06T00:05:22.797Z,0
2017-12-06T00:06:32.781Z,0
2017-12-06T00:07:42.500Z,0
2017-12-06T00:08:52.489Z,0
2017-12-06T00:10:02.206Z,0
2017-12-06T00:11:12.196Z,0
2017-12-06T00:12:22.184Z,0
2017-12-06T00:13:32.166Z,0
2017-12-06T00:14:41.880Z,0
2017-12-06T00:15:51.869Z,0
2017-12-06T00:17:01.856Z,0
2017-12-06T00:18:11.313Z,0
2017-12-06T00:19:21.305Z,0
2017-12-06T00:20:31.297Z,0
2017-12-06T00:21:41.278Z,0
2017-12-06T00:22:50.995Z,0
2017-12-06T00:24:00.978Z,0
2017-12-06T00:25:10.696Z,0
2017-12-06T00:26:20.685Z,0
2017-12-06T00:27:30.136Z,0
2017-12-06T00:28:40.120Z,0
2017-12-06T00:29:49.835Z,0
2017-12-06T00:30:59.821Z,0
2017-12-06T00:32:09.543Z,0
2017-12-06T00:33:19.530Z,0
2017-12-06T00:34:29.514Z,0
2017-12-06T00:35:39.500Z,0
2017-12-06T00:36:49.480Z,0
2017-12-06T00:37:59.460Z,0
2017-12-06T00:39:09.443Z,0
2017-12-06T00:40:19.435Z,0
2017-12-06T00:41:29.417Z,0
2017-12-06T00:42:39.142Z,0
2017-12-06T00:43:48.860Z,0
2017-12-06T00:44:58.584Z,0
2017-12-06T00:46:08.300Z,0
2017-12-06T00:47:18.335Z,0
2017-12-06T00:48:28.052Z,0
2017-12-06T00:49:38.044Z,0
2017-12-06T00:50:48.029Z,0
2017-12-06T00:51:57.743Z,0
2017-12-06T00:53:07.465Z,0
2017-12-06T00:54:17.443Z,0
2017-12-06T00:55:27.427Z,0
2017-12-06T00:56:37.415Z,0
2017-12-06T00:57:47.408Z,0
2017-12-06T00:58:57.390Z,0
2017-12-06T01:00:07.374Z,0
2017-12-06T01:01:17.096Z,0
2017-12-06T01:02:27.078Z,0
2017-12-06T01:03:37.058Z,0
2017-12-06T01:04:47.041Z,0
2017-12-06T01:05:57.030Z,0
2017-12-06T01:07:07.021Z,0
2017-12-06T01:08:17.010Z,0
2017-12-06T01:09:26.720Z,0
2017-12-06T01:10:36.714Z,0
2017-12-06T01:11:46.704Z,0
2017-12-06T01:12:56.690Z,0
2017-12-06T01:14:06.674Z,0
2017-12-06T01:15:16.661Z,0
2017-12-06T01:16:26.643Z,0
2017-12-06T01:17:36.624Z,0
2017-12-06T01:18:46.351Z,0
2017-12-06T01:19:56.332Z,0
2017-12-06T01:21:05.789Z,0
2017-12-06T01:22:15.906Z,0
2017-12-06T01:23:25.355Z,0
2017-12-06T01:24:35.337Z,0
2017-12-06T01:25:45.318Z,0
2017-12-06T01:26:55.301Z,0
2017-12-06T01:28:05.016Z,0
2017-12-06T01:29:15.006Z,0
2017-12-06T01:30:24.993Z,0
2017-12-06T01:31:34.979Z,0
2017-12-06T01:32:44.962Z,0
2017-12-06T01:33:54.682Z,0
2017-12-06T01:35:04.664Z,0
2017-12-06T01:36:14.387Z,0
2017-12-06T01:37:24.367Z,0
2017-12-06T01:38:34.412Z,0
2017-12-06T01:39:44.396Z,0
2017-12-06T01:40:54.391Z,0
2017-12-06T01:42:04.380Z,0
2017-12-06T01:43:14.421Z,0
2017-12-06T01:44:24.407Z,0
2017-12-06T01:45:34.391Z,0
2017-12-06T01:46:44.108Z,0
2017-12-06T01:47:54.092Z,0
2017-12-06T01:49:04.078Z,0
2017-12-06T01:50:14.058Z,0
2017-12-06T01:51:23.831Z,0
2017-12-06T01:52:33.814Z,0
2017-12-06T01:53:44.097Z,0
2017-12-06T01:54:54.082Z,0
2017-12-06T01:56:04.072Z,0
2017-12-06T01:57:14.052Z,0
2017-12-06T01:58:24.032Z,0
2017-12-06T01:59:34.010Z,0
2017-12-06T02:00:44.003Z,0
2017-12-06T02:01:53.986Z,0
2017-12-06T02:03:03.968Z,0
2017-12-06T02:04:13.419Z,0
2017-12-06T02:05:23.408Z,0
2017-12-06T02:06:33.131Z,0
2017-12-06T02:07:43.111Z,0
2017-12-06T02:08:53.102Z,0
2017-12-06T02:10:03.091Z,0
2017-12-06T02:11:12.810Z,0
2017-12-06T02:12:22.804Z,0
2017-12-06T02:13:32.525Z,0
2017-12-06T02:14:42.508Z,0
2017-12-06T02:15:52.492Z,0
2017-12-06T02:17:02.222Z,0
2017-12-06T02:18:11.945Z,0
2017-12-06T02:19:21.935Z,0
2017-12-06T02:20:31.655Z,0
2017-12-06T02:21:41.423Z,0
2017-12-06T02:22:51.407Z,0
2017-12-06T02:24:00.857Z,0
2017-12-06T02:25:10.582Z,0
2017-12-06T02:26:20.573Z,0
2017-12-06T02:27:30.575Z,0
2017-12-06T02:28:40.615Z,0
2017-12-06T02:29:50.333Z,0
2017-12-06T02:31:00.372Z,0
2017-12-06T02:32:10.101Z,0
2017-12-06T02:33:19.821Z,0
2017-12-06T02:34:29.859Z,0
2017-12-06T02:35:39.850Z,0
2017-12-06T02:36:49.591Z,0
2017-12-06T02:37:59.583Z,0
2017-12-06T02:39:09.604Z,0
2017-12-06T02:40:19.597Z,0
2017-12-06T02:41:29.651Z,0
2017-12-06T02:42:39.373Z,0
2017-12-06T02:43:49.358Z,0
2017-12-06T02:44:58.842Z,0
2017-12-06T02:46:08.826Z,0
2017-12-06T02:47:18.818Z,0
2017-12-06T02:48:28.801Z,0
2017-12-06T02:49:38.521Z,0
2017-12-06T02:50:48.233Z,0
2017-12-06T02:51:58.223Z,0
2017-12-06T02:53:08.219Z,0
2017-12-06T02:54:18.218Z,0
2017-12-06T02:55:28.198Z,0
2017-12-06T02:56:38.193Z,0
2017-12-06T02:57:48.180Z,0
2017-12-06T02:58:58.165Z,0
2017-12-06T03:00:07.902Z,0
2017-12-06T03:01:17.935Z,0
2017-12-06T03:02:27.654Z,0
2017-12-06T03:03:37.637Z,0
2017-12-06T03:04:47.620Z,0
2017-12-06T03:05:57.338Z,0
2017-12-06T03:07:07.054Z,0
2017-12-06T03:08:16.771Z,0
2017-12-06T03:09:26.909Z,0
2017-12-06T03:10:36.892Z,0
2017-12-06T03:11:46.613Z,0
2017-12-06T03:12:56.597Z,0
2017-12-06T03:14:06.583Z,0
2017-12-06T03:15:16.033Z,0
2017-12-06T03:16:25.747Z,0
2017-12-06T03:17:35.732Z,0
2017-12-06T03:18:45.448Z,0
2017-12-06T03:19:55.444Z,0
2017-12-06T03:21:05.466Z,0
2017-12-06T03:22:15.182Z,0
2017-12-06T03:23:24.902Z,0
2017-12-06T03:24:34.888Z,0
2017-12-06T03:25:44.601Z,0
2017-12-06T03:26:54.587Z,0
2017-12-06T03:28:04.301Z,0
2017-12-06T03:29:14.283Z,0
2017-12-06T03:30:24.298Z,0
2017-12-06T03:31:34.280Z,0
2017-12-06T03:32:44.263Z,0
2017-12-06T03:33:54.249Z,0
2017-12-06T03:35:04.023Z,0
2017-12-06T03:36:14.010Z,0
2017-12-06T03:37:24.032Z,0
2017-12-06T03:38:34.019Z,0
2017-12-06T03:39:43.999Z,0
2017-12-06T03:40:53.985Z,0
2017-12-06T03:42:03.965Z,0
2017-12-06T03:43:13.957Z,0
2017-12-06T03:44:23.938Z,0
2017-12-06T03:45:33.652Z,0
2017-12-06T03:46:43.694Z,0
2017-12-06T03:47:53.680Z,0
2017-12-06T03:49:03.667Z,0
2017-12-06T03:50:13.645Z,0
2017-12-06T03:51:23.647Z,0
2017-12-06T03:52:33.692Z,0
2017-12-06T03:53:43.686Z,0
2017-12-06T03:54:53.403Z,0
2017-12-06T03:56:03.381Z,0
2017-12-06T03:57:13.363Z,0
2017-12-06T03:58:23.342Z,0
2017-12-06T03:59:33.325Z,0
2017-12-06T04:03:31.685Z,0
2017-12-06T04:04:41.684Z,0
2017-12-06T04:05:51.666Z,0
2017-12-06T04:07:01.391Z,0
2017-12-06T04:08:11.373Z,0
2017-12-06T04:09:20.828Z,0
2017-12-06T04:10:30.812Z,0
2017-12-06T04:11:40.531Z,0
2017-12-06T04:12:50.256Z,0
2017-12-06T04:14:00.237Z,0
2017-12-06T04:15:09.952Z,0
2017-12-06T04:16:19.934Z,0
2017-12-06T04:17:29.388Z,0
2017-12-06T04:18:39.114Z,0
2017-12-06T04:19:48.566Z,0
2017-12-06T04:20:58.288Z,0
2017-12-06T04:22:08.287Z,0
2017-12-06T04:23:18.274Z,0
2017-12-06T04:24:28.028Z,0
2017-12-06T04:25:37.718Z,0
2017-12-06T04:26:47.433Z,0
2017-12-06T04:27:57.148Z,0
2017-12-06T04:29:07.135Z,0
2017-12-06T04:30:17.121Z,0
2017-12-06T04:31:27.103Z,0
2017-12-06T04:32:37.087Z,0
2017-12-06T04:33:46.816Z,0
2017-12-06T04:34:56.802Z,0
2017-12-06T04:36:06.526Z,0
2017-12-06T04:37:16.506Z,0
2017-12-06T04:38:26.221Z,0
2017-12-06T04:39:36.204Z,0
2017-12-06T04:40:46.187Z,0
2017-12-06T04:41:56.180Z,0
2017-12-06T04:43:05.904Z,0
2017-12-06T04:44:15.685Z,0
2017-12-06T04:45:25.673Z,0
2017-12-06T04:46:35.667Z,0
2017-12-06T04:47:45.652Z,0
2017-12-06T04:48:55.641Z,0
2017-12-06T04:50:05.623Z,0
2017-12-06T04:51:15.625Z,0
2017-12-06T04:52:25.613Z,0
2017-12-06T04:53:35.066Z,0
2017-12-06T04:54:44.786Z,0
2017-12-06T04:55:54.769Z,0
2017-12-06T04:57:04.750Z,0
2017-12-06T04:58:14.467Z,0
2017-12-06T04:59:24.447Z,0
2017-12-06T05:00:34.163Z,0
2017-12-06T05:01:44.142Z,0
2017-12-06T05:02:53.860Z,0
2017-12-06T05:04:03.575Z,0
2017-12-06T05:05:13.565Z,0
2017-12-06T05:06:23.546Z,0
2017-12-06T05:07:33.531Z,0
2017-12-06T05:08:43.516Z,0
2017-12-06T05:09:53.237Z,0
2017-12-06T05:11:03.222Z,0
2017-12-06T05:12:13.204Z,0
2017-12-06T05:13:22.925Z,0
2017-12-06T05:14:32.919Z,0
2017-12-06T05:15:42.914Z,0
2017-12-06T05:16:52.894Z,0
2017-12-06T05:18:02.881Z,0
2017-12-06T05:19:12.861Z,0
2017-12-06T05:20:22.843Z,0
2017-12-06T05:21:32.827Z,0
2017-12-06T05:22:42.811Z,0
2017-12-06T05:23:52.811Z,0
2017-12-06T05:25:02.524Z,0
2017-12-06T05:26:12.247Z,0
2017-12-06T05:27:22.230Z,0
2017-12-06T05:28:32.218Z,0
2017-12-06T05:29:42.205Z,0
2017-12-06T05:30:52.196Z,0
2017-12-06T05:32:02.176Z,0
2017-12-06T05:33:12.216Z,0
2017-12-06T05:34:22.195Z,0
2017-12-06T05:35:31.922Z,0
2017-12-06T05:36:41.921Z,0
2017-12-06T05:37:51.910Z,0
2017-12-06T05:39:01.894Z,0
2017-12-06T05:40:11.878Z,0
2017-12-06T05:41:21.860Z,0
2017-12-06T05:42:33.853Z,0
2017-12-06T05:43:43.849Z,0
2017-12-06T05:44:53.834Z,0
2017-12-06T05:46:03.556Z,0
2017-12-06T05:47:13.542Z,0
2017-12-06T05:48:23.521Z,0
2017-12-06T05:49:33.532Z,0
2017-12-06T05:50:43.515Z,0
2017-12-06T05:51:53.496Z,0
2017-12-06T05:53:03.215Z,0
2017-12-06T05:54:12.932Z,0
2017-12-06T05:55:22.906Z,0
2017-12-06T05:56:32.898Z,0
2017-12-06T05:57:42.879Z,0
2017-12-06T05:58:52.867Z,0
2017-12-06T06:00:02.577Z,0
2017-12-06T06:01:12.030Z,0
2017-12-06T06:02:22.022Z,0
2017-12-06T06:03:32.014Z,0
2017-12-06T06:04:42.003Z,0
2017-12-06T06:05:51.727Z,0
2017-12-06T06:07:01.181Z,0
2017-12-06T06:08:11.168Z,0
2017-12-06T06:09:20.651Z,0
2017-12-06T06:10:30.640Z,0
2017-12-06T06:11:41.475Z,0
2017-12-06T06:12:51.196Z,0
2017-12-06T06:14:01.177Z,0
2017-12-06T06:15:11.157Z,0
2017-12-06T06:16:21.138Z,0
2017-12-06T06:17:31.125Z,0
2017-12-06T06:18:41.108Z,0
2017-12-06T06:19:51.090Z,0
2017-12-06T06:21:01.069Z,0
2017-12-06T06:22:11.107Z,0
2017-12-06T06:23:20.824Z,0
2017-12-06T06:24:30.811Z,0
2017-12-06T06:25:40.798Z,0
2017-12-06T06:26:50.783Z,0
2017-12-06T06:28:00.502Z,0
2017-12-06T06:29:10.492Z,0
2017-12-06T06:30:20.477Z,0
2017-12-06T06:31:30.192Z,0
2017-12-06T06:32:39.910Z,0
2017-12-06T06:33:49.628Z,0
2017-12-06T06:34:59.613Z,0
2017-12-06T06:36:09.333Z,0
2017-12-06T06:37:19.051Z,0
2017-12-06T06:38:28.763Z,0
2017-12-06T06:39:38.749Z,0
2017-12-06T06:40:48.729Z,0
2017-12-06T06:41:58.449Z,0
2017-12-06T06:43:08.434Z,0
2017-12-06T06:44:18.150Z,0
2017-12-06T06:45:27.866Z,0
2017-12-06T06:46:37.853Z,0
2017-12-06T06:47:47.841Z,0
2017-12-06T06:48:57.899Z,0
2017-12-06T06:50:07.353Z,0
2017-12-06T06:51:16.825Z,0
2017-12-06T06:52:26.824Z,0
2017-12-06T06:53:36.545Z,0
2017-12-06T06:54:46.522Z,0
2017-12-06T06:55:56.258Z,0
2017-12-06T06:57:06.249Z,0
2017-12-06T06:58:16.025Z,0
2017-12-06T06:59:25.474Z,0
2017-12-06T07:00:35.509Z,0
2017-12-06T07:01:45.490Z,0
2017-12-06T07:02:55.473Z,0
2017-12-06T07:04:04.985Z,0
2017-12-06T07:05:14.703Z,0
2017-12-06T07:06:24.683Z,0
2017-12-06T07:07:34.398Z,0
2017-12-06T07:08:44.593Z,0
2017-12-06T07:09:56.599Z,0
2017-12-06T07:11:06.587Z,0
2017-12-06T07:12:16.570Z,0
2017-12-06T07:13:26.283Z,0
2017-12-06T07:14:36.273Z,0
2017-12-06T07:15:46.261Z,0
2017-12-06T07:16:56.244Z,0
2017-12-06T07:18:06.226Z,0
2017-12-06T07:19:15.940Z,0
2017-12-06T07:20:25.929Z,0
2017-12-06T07:21:35.644Z,0
2017-12-06T07:22:45.364Z,0
2017-12-06T07:23:55.354Z,0
2017-12-06T07:25:05.142Z,0
2017-12-06T07:26:15.141Z,0
2017-12-06T07:27:24.860Z,0
2017-12-06T07:28:34.843Z,0
2017-12-06T07:29:44.824Z,0
2017-12-06T07:30:54.806Z,0
2017-12-06T07:32:04.523Z,0
2017-12-06T07:33:14.508Z,0
2017-12-06T07:34:24.233Z,0
2017-12-06T07:35:33.948Z,0
2017-12-06T07:36:43.670Z,0
2017-12-06T07:37:53.390Z,0
2017-12-06T07:39:03.413Z,0
2017-12-06T07:40:12.869Z,0
2017-12-06T07:41:22.858Z,0
2017-12-06T07:42:32.843Z,0
2017-12-06T07:43:42.828Z,0
2017-12-06T07:44:52.816Z,0
2017-12-06T07:46:02.533Z,0
2017-12-06T07:47:12.517Z,0
2017-12-06T07:48:21.974Z,0
2017-12-06T07:49:32.040Z,0
2017-12-06T07:50:41.755Z,0
2017-12-06T07:51:51.737Z,0
2017-12-06T07:53:01.719Z,0
2017-12-06T07:54:11.441Z,0
2017-12-06T07:55:21.425Z,0
2017-12-06T07:56:31.415Z,0
2017-12-06T07:57:41.131Z,5
2017-12-06T07:58:51.115Z,5
2017-12-06T08:00:00.836Z,5
2017-12-06T08:01:10.568Z,5
2017-12-06T08:02:20.287Z,5
2017-12-06T08:03:30.008Z,5
2017-12-06T08:04:39.731Z,5
2017-12-06T08:05:49.455Z,5
2017-12-06T08:06:59.443Z,5
2017-12-06T08:08:09.167Z,5
2017-12-06T08:09:19.149Z,5
2017-12-06T08:10:29.138Z,5
2017-12-06T08:11:38.865Z,10
2017-12-06T08:12:48.319Z,10
2017-12-06T08:13:58.047Z,10
2017-12-06T08:15:08.029Z,10
2017-12-06T08:16:18.010Z,10
2017-12-06T08:17:27.991Z,10
2017-12-06T08:18:37.971Z,10
2017-12-06T08:19:47.433Z,10
2017-12-06T08:20:56.883Z,15
2017-12-06T08:22:06.870Z,15
2017-12-06T08:23:16.859Z,15
2017-12-06T08:24:26.838Z,15
2017-12-06T08:25:36.828Z,15
2017-12-06T08:26:46.558Z,15
2017-12-06T08:27:56.273Z,20
2017-12-06T08:29:06.305Z,20
2017-12-06T08:30:15.806Z,20
2017-12-06T08:31:25.521Z,20
2017-12-06T08:32:35.238Z,20
2017-12-06T08:33:44.957Z,25
2017-12-06T08:34:54.941Z,25
2017-12-06T08:36:04.397Z,25
2017-12-06T08:37:14.113Z,25
2017-12-06T08:38:24.094Z,25
2017-12-06T08:39:34.076Z,30
2017-12-06T08:40:44.070Z,30
2017-12-06T08:41:54.055Z,30
2017-12-06T08:43:04.037Z,30
2017-12-06T08:44:14.023Z,35
2017-12-06T08:45:24.005Z,35
2017-12-06T08:46:33.987Z,35
2017-12-06T08:47:43.964Z,35
2017-12-06T08:48:53.415Z,35
2017-12-06T08:50:02.875Z,35
2017-12-06T08:51:12.869Z,40
2017-12-06T08:52:22.586Z,40
2017-12-06T08:53:32.570Z,40
2017-12-06T08:54:42.550Z,40
2017-12-06T08:55:52.540Z,40
2017-12-06T08:57:02.530Z,40
2017-12-06T08:58:12.509Z,45
2017-12-06T08:59:22.225Z,45
2017-12-06T09:00:32.713Z,45
2017-12-06T09:01:42.702Z,45
2017-12-06T09:02:52.416Z,50
2017-12-06T09:04:02.135Z,50
2017-12-06T09:05:11.586Z,55
2017-12-06T09:06:21.621Z,55
2017-12-06T09:07:31.337Z,60
2017-12-06T09:08:41.327Z,60
2017-12-06T09:09:51.041Z,60
2017-12-06T09:11:01.036Z,60
2017-12-06T09:12:10.761Z,60
2017-12-06T09:13:20.748Z,65
2017-12-06T09:14:30.466Z,60
2017-12-06T09:15:39.913Z,60
2017-12-06T09:16:49.645Z,60
2017-12-06T09:17:59.634Z,65
2017-12-06T09:19:09.612Z,60
2017-12-06T09:20:19.593Z,65
2017-12-06T09:21:29.580Z,65
2017-12-06T09:22:39.562Z,65
2017-12-06T09:23:49.543Z,70
2017-12-06T09:24:59.266Z,70
2017-12-06T09:26:09.247Z,70
2017-12-06T09:27:18.967Z,70
2017-12-06T09:28:28.678Z,70
2017-12-06T09:29:38.668Z,75
2017-12-06T09:30:48.382Z,75
2017-12-06T09:31:58.114Z,75
2017-12-06T09:33:08.095Z,75
2017-12-06T09:34:17.283Z,75
2017-12-06T09:35:26.999Z,75
2017-12-06T09:36:36.985Z,75
2017-12-06T09:37:46.965Z,75
2017-12-06T09:38:56.694Z,75
2017-12-06T09:40:06.681Z,75
2017-12-06T09:41:16.403Z,75
2017-12-06T09:42:26.383Z,75
2017-12-06T09:43:36.099Z,75
2017-12-06T09:44:45.881Z,80
2017-12-06T09:45:55.601Z,80
2017-12-06T09:47:07.591Z,85
2017-12-06T09:48:17.579Z,85
2017-12-06T09:49:27.026Z,85
2017-12-06T09:50:36.744Z,85
2017-12-06T09:51:46.723Z,85
2017-12-06T09:52:56.178Z,85
2017-12-06T09:54:06.168Z,90
2017-12-06T09:55:16.150Z,90
2017-12-06T09:56:25.335Z,95
2017-12-06T09:57:35.319Z,95
2017-12-06T09:58:44.770Z,100
2017-12-06T09:59:54.484Z,100
2017-12-06T10:01:04.504Z,105
2017-12-06T10:02:13.958Z,105
2017-12-06T10:03:23.410Z,105
2017-12-06T10:04:33.395Z,100
2017-12-06T10:05:43.141Z,100
2017-12-06T10:06:52.864Z,105
2017-12-06T10:08:02.846Z,105
2017-12-06T10:09:12.562Z,105
2017-12-06T10:10:22.626Z,110
2017-12-06T10:11:32.340Z,110
2017-12-06T10:12:42.327Z,115
2017-12-06T10:13:52.050Z,115
2017-12-06T10:15:02.036Z,115
2017-12-06T10:16:12.032Z,120
2017-12-06T10:17:22.013Z,125
2017-12-06T10:18:31.999Z,125
2017-12-06T10:19:41.717Z,130
2017-12-06T10:20:51.703Z,130
2017-12-06T10:22:01.690Z,130
2017-12-06T10:23:11.677Z,130
2017-12-06T10:24:21.396Z,130
2017-12-06T10:25:31.132Z,130
2017-12-06T10:26:40.848Z,130
2017-12-06T10:27:50.839Z,130
2017-12-06T10:29:00.825Z,130
2017-12-06T10:30:10.326Z,130
2017-12-06T10:31:20.315Z,130
2017-12-06T10:32:30.303Z,130
2017-12-06T10:33:40.023Z,135
2017-12-06T10:34:49.740Z,135
2017-12-06T10:35:59.468Z,135
2017-12-06T10:37:09.524Z,130
2017-12-06T10:38:19.242Z,130
2017-12-06T10:39:29.264Z,125
2017-12-06T10:40:39.246Z,125
2017-12-06T10:41:49.227Z,130
2017-12-06T10:42:59.218Z,130
2017-12-06T10:44:09.206Z,130
2017-12-06T10:45:19.378Z,130
2017-12-06T10:46:29.382Z,135
2017-12-06T10:47:39.370Z,135
2017-12-06T10:48:49.096Z,140
2017-12-06T10:49:59.082Z,140
2017-12-06T10:51:08.798Z,140
2017-12-06T10:52:18.806Z,140
2017-12-06T10:53:28.803Z,140
2017-12-06T10:54:38.525Z,140
2017-12-06T10:55:48.520Z,140
2017-12-06T10:56:58.508Z,140
2017-12-06T10:58:08.279Z,140
2017-12-06T10:59:18.260Z,140
2017-12-06T11:00:27.987Z,135
2017-12-06T11:01:37.443Z,135
2017-12-06T11:02:47.165Z,135
2017-12-06T11:03:57.147Z,135
2017-12-06T11:05:07.141Z,135
2017-12-06T11:06:16.591Z,135
2017-12-06T11:07:26.582Z,135
2017-12-06T11:08:36.310Z,135
2017-12-06T11:09:46.355Z,130
2017-12-06T11:10:56.078Z,135
2017-12-06T11:12:05.794Z,130
2017-12-06T11:13:15.793Z,120
2017-12-06T11:14:25.781Z,115
2017-12-06T11:15:35.509Z,110
2017-12-06T11:16:45.230Z,105
2017-12-06T11:17:54.685Z,105
2017-12-06T11:19:04.681Z,105
2017-12-06T11:20:14.138Z,100
2017-12-06T11:21:23.861Z,100
2017-12-06T11:22:33.845Z,95
2017-12-06T11:23:43.562Z,95
2017-12-06T11:24:53.554Z,95
2017-12-06T11:26:03.776Z,95
2017-12-06T11:27:13.763Z,90
2017-12-06T11:28:23.753Z,90
2017-12-06T11:29:33.738Z,85
2017-12-06T11:30:43.729Z,85
2017-12-06T11:31:53.482Z,85
2017-12-06T11:33:03.468Z,85
2017-12-06T11:34:13.450Z,80
2017-12-06T11:35:23.435Z,80
2017-12-06T11:36:33.418Z,80
2017-12-06T11:37:43.135Z,80
2017-12-06T11:38:52.853Z,80
2017-12-06T11:40:02.838Z,80
2017-12-06T11:41:12.826Z,80
2017-12-06T11:42:22.542Z,80
2017-12-06T11:43:32.525Z,80
2017-12-06T11:44:42.512Z,80
2017-12-06T11:45:52.491Z,85
2017-12-06T11:47:02.474Z,85
2017-12-06T11:48:11.928Z,85
2017-12-06T11:49:21.920Z,80
2017-12-06T11:50:31.899Z,80
2017-12-06T11:51:41.883Z,80
2017-12-06T11:52:51.871Z,80
2017-12-06T11:54:01.859Z,80
2017-12-06T11:55:11.851Z,80
2017-12-06T11:56:21.834Z,80
2017-12-06T11:57:31.286Z,80
2017-12-06T11:58:41.014Z,80
2017-12-06T11:59:50.996Z,80
2017-12-06T12:01:00.180Z,80
2017-12-06T12:02:09.901Z,80
2017-12-06T12:03:19.884Z,80
2017-12-06T12:04:29.876Z,80
2017-12-06T12:05:39.865Z,80
2017-12-06T12:06:49.591Z,80
2017-12-06T12:07:59.574Z,80
2017-12-06T12:09:09.557Z,75
2017-12-06T12:10:19.275Z,75
2017-12-06T12:11:28.997Z,75
2017-12-06T12:12:38.716Z,75
2017-12-06T12:13:48.699Z,75
2017-12-06T12:14:58.685Z,75
2017-12-06T12:16:08.407Z,75
2017-12-06T12:17:18.122Z,75
2017-12-06T12:18:28.108Z,70
2017-12-06T12:19:37.558Z,70
2017-12-06T12:20:47.546Z,65
2017-12-06T12:21:56.739Z,65
2017-12-06T12:23:06.734Z,60
2017-12-06T12:24:16.452Z,60
2017-12-06T12:25:26.433Z,60
2017-12-06T12:26:36.155Z,60
2017-12-06T12:27:45.879Z,60
2017-12-06T12:28:55.862Z,55
2017-12-06T12:30:05.582Z,55
2017-12-06T12:31:15.566Z,55
2017-12-06T12:32:25.547Z,55
2017-12-06T12:33:35.262Z,55
2017-12-06T12:34:45.249Z,55
2017-12-06T12:35:55.238Z,50
2017-12-06T12:37:05.218Z,50
2017-12-06T12:38:14.683Z,50
2017-12-06T12:39:24.667Z,50
2017-12-06T12:40:34.434Z,55
2017-12-06T12:41:44.415Z,55
2017-12-06T12:42:54.415Z,55
2017-12-06T12:44:04.136Z,55
2017-12-06T12:45:14.147Z,50
2017-12-06T12:46:24.130Z,50
2017-12-06T12:47:34.172Z,50
2017-12-06T12:48:43.886Z,50
2017-12-06T12:49:53.873Z,55
2017-12-06T12:51:03.858Z,55
2017-12-06T12:52:13.837Z,55
2017-12-06T12:53:23.819Z,55
2017-12-06T12:54:33.920Z,55
2017-12-06T12:55:43.635Z,55
2017-12-06T12:56:53.615Z,55
2017-12-06T12:58:03.682Z,50
2017-12-06T12:59:13.396Z,50
2017-12-06T13:00:23.380Z,50
2017-12-06T13:01:33.364Z,55
2017-12-06T13:02:43.136Z,50
2017-12-06T13:03:53.127Z,50
2017-12-06T13:05:04.899Z,50
2017-12-06T13:06:14.619Z,50
2017-12-06T13:07:24.602Z,50
2017-12-06T13:08:34.320Z,50
2017-12-06T13:09:44.303Z,50
2017-12-06T13:10:54.291Z,50
2017-12-06T13:12:04.028Z,50
2017-12-06T13:13:14.022Z,50
2017-12-06T13:14:23.218Z,50
2017-12-06T13:15:33.205Z,50
2017-12-06T13:16:42.920Z,50
2017-12-06T13:17:52.906Z,50
2017-12-06T13:19:02.621Z,50
2017-12-06T13:20:12.338Z,50
2017-12-06T13:21:22.319Z,50
2017-12-06T13:22:32.034Z,45
2017-12-06T13:23:42.020Z,45
2017-12-06T13:24:51.482Z,45
2017-12-06T13:26:01.467Z,40
2017-12-06T13:27:11.477Z,40
2017-12-06T13:28:21.195Z,40
2017-12-06T13:29:31.211Z,35
2017-12-06T13:30:41.202Z,35
2017-12-06T13:31:50.920Z,35
2017-12-06T13:33:00.638Z,35
2017-12-06T13:34:10.640Z,30
2017-12-06T13:35:20.360Z,30
2017-12-06T13:36:30.343Z,30
2017-12-06T13:37:40.327Z,25
2017-12-06T13:38:50.306Z,25
2017-12-06T13:40:03.793Z,25
2017-12-06T13:41:13.512Z,20
2017-12-06T13:42:23.503Z,20
2017-12-06T13:43:33.226Z,20
2017-12-06T13:44:43.221Z,20
2017-12-06T13:45:53.200Z,20
2017-12-06T13:47:02.919Z,15
2017-12-06T13:48:12.900Z,15
2017-12-06T13:49:22.627Z,15
2017-12-06T13:50:32.400Z,15
2017-12-06T13:51:42.388Z,15
2017-12-06T13:52:52.376Z,15
2017-12-06T13:54:02.359Z,15
2017-12-06T13:55:12.077Z,15
2017-12-06T13:56:22.064Z,15
2017-12-06T13:57:32.047Z,15
2017-12-06T13:58:41.764Z,10
2017-12-06T13:59:51.476Z,10
2017-12-06T14:01:01.467Z,10
2017-12-06T14:02:10.920Z,10
2017-12-06T14:03:20.907Z,10
2017-12-06T14:04:30.901Z,10
2017-12-06T14:05:40.899Z,10
2017-12-06T14:06:50.881Z,10
2017-12-06T14:08:00.869Z,5
2017-12-06T14:09:10.858Z,5
2017-12-06T14:10:20.848Z,5
2017-12-06T14:11:30.564Z,5
2017-12-06T14:12:40.553Z,5
2017-12-06T14:13:50.542Z,5
2017-12-06T14:15:00.528Z,5
2017-12-06T14:16:10.243Z,5
2017-12-06T14:17:19.961Z,5
2017-12-06T14:18:29.737Z,0
2017-12-06T14:19:39.754Z,0
2017-12-06T14:20:49.740Z,0
2017-12-06T14:21:59.727Z,0
2017-12-06T14:23:09.443Z,0
2017-12-06T14:24:19.496Z,0
2017-12-06T14:25:29.217Z,0
2017-12-06T14:26:38.936Z,0
2017-12-06T14:27:48.919Z,0
2017-12-06T14:28:58.914Z,0
2017-12-06T14:30:08.901Z,0
2017-12-06T14:31:18.884Z,0
2017-12-06T14:32:28.869Z,0
2017-12-06T14:33:38.861Z,0
2017-12-06T14:34:48.863Z,0
2017-12-06T14:35:58.848Z,0
2017-12-06T14:37:08.830Z,0
2017-12-06T14:38:20.546Z,0
2017-12-06T14:39:30.605Z,0
2017-12-06T14:40:40.585Z,0
2017-12-06T14:41:50.308Z,0
2017-12-06T14:43:00.027Z,0
2017-12-06T14:44:10.010Z,0
2017-12-06T14:45:19.727Z,0
2017-12-06T14:46:29.440Z,0
2017-12-06T14:47:39.422Z,0
2017-12-06T14:48:49.411Z,0
2017-12-06T14:49:59.408Z,0
2017-12-06T14:51:09.389Z,0
2017-12-06T14:52:18.843Z,0
2017-12-06T14:53:28.827Z,0
2017-12-06T14:54:38.544Z,0
2017-12-06T14:55:48.526Z,0
2017-12-06T14:56:58.520Z,0
2017-12-06T14:58:08.245Z,0
2017-12-06T14:59:18.016Z,0
2017-12-06T15:00:28.002Z,0
2017-12-06T15:01:37.982Z,0
2017-12-06T15:02:47.962Z,0
2017-12-06T15:03:57.950Z,0
2017-12-06T15:05:07.668Z,0
2017-12-06T15:06:17.703Z,0
2017-12-06T15:07:27.694Z,0
2017-12-06T15:08:37.413Z,0
2017-12-06T15:09:47.394Z,0
2017-12-06T15:10:57.378Z,0
2017-12-06T15:12:07.366Z,0
2017-12-06T15:13:17.346Z,0
2017-12-06T15:14:27.332Z,0
2017-12-06T15:15:37.050Z,0
2017-12-06T15:16:47.039Z,0
2017-12-06T15:17:57.023Z,0
2017-12-06T15:19:07.002Z,0
2017-12-06T15:20:16.719Z,0
2017-12-06T15:21:26.705Z,0
2017-12-06T15:22:36.159Z,0
2017-12-06T15:23:46.137Z,0
2017-12-06T15:24:55.859Z,0
2017-12-06T15:26:05.889Z,0
2017-12-06T15:27:15.657Z,0
2017-12-06T15:28:25.373Z,0
2017-12-06T15:29:35.448Z,0
2017-12-06T15:30:45.436Z,0
2017-12-06T15:31:55.416Z,0
2017-12-06T15:33:05.406Z,0
2017-12-06T15:34:15.127Z,0
2017-12-06T15:35:24.843Z,0
2017-12-06T15:36:34.827Z,0
2017-12-06T15:37:44.543Z,0
2017-12-06T15:38:54.526Z,0
2017-12-06T15:40:04.509Z,0
2017-12-06T15:41:14.259Z,0
2017-12-06T15:42:24.245Z,0
2017-12-06T15:43:34.231Z,0
2017-12-06T15:44:44.235Z,0
2017-12-06T15:45:54.218Z,0
2017-12-06T15:47:03.947Z,0
2017-12-06T15:48:13.718Z,0
2017-12-06T15:49:23.698Z,0
2017-12-06T15:50:33.416Z,0
2017-12-06T15:51:43.400Z,0
2017-12-06T15:52:53.120Z,0
2017-12-06T15:54:03.105Z,0
2017-12-06T15:55:13.086Z,0
2017-12-06T15:56:23.072Z,0
2017-12-06T15:57:33.065Z,0
2017-12-06T15:58:43.095Z,0
2017-12-06T15:59:52.818Z,0
2017-12-06T16:01:02.800Z,0
2017-12-06T16:02:12.790Z,0
2017-12-06T16:03:22.777Z,0
2017-12-06T16:04:32.760Z,0
2017-12-06T16:05:42.764Z,0
2017-12-06T16:06:52.478Z,0
2017-12-06T16:08:02.461Z,0
2017-12-06T16:09:12.446Z,0
2017-12-06T16:10:22.438Z,0
2017-12-06T16:11:32.156Z,0
2017-12-06T16:12:41.881Z,0
2017-12-06T16:13:51.863Z,0
2017-12-06T16:15:01.854Z,0
2017-12-06T16:16:11.581Z,0
2017-12-06T16:17:22.764Z,0
2017-12-06T16:18:32.746Z,0
2017-12-06T16:19:42.480Z,0
2017-12-06T16:20:52.477Z,0
2017-12-06T16:22:02.458Z,0
2017-12-06T16:23:12.451Z,0
2017-12-06T16:24:22.167Z,0
2017-12-06T16:25:32.191Z,0
2017-12-06T16:26:41.908Z,0
2017-12-06T16:27:51.890Z,0
2017-12-06T16:29:01.915Z,0
2017-12-06T16:30:11.901Z,0
2017-12-06T16:31:21.890Z,0
2017-12-06T16:32:31.868Z,0
2017-12-06T16:33:41.586Z,0
2017-12-06T16:34:51.568Z,0
2017-12-06T16:36:01.559Z,0
2017-12-06T16:37:11.546Z,0
2017-12-06T16:38:21.547Z,0
2017-12-06T16:39:31.529Z,0
2017-12-06T16:40:41.247Z,0
2017-12-06T16:41:51.228Z,0
2017-12-06T16:43:00.951Z,0
2017-12-06T16:44:10.936Z,0
2017-12-06T16:45:20.919Z,0
2017-12-06T16:46:30.667Z,0
2017-12-06T16:47:39.853Z,0
2017-12-06T16:48:49.834Z,0
2017-12-06T16:49:59.816Z,0
2017-12-06T16:51:09.816Z,0
2017-12-06T16:52:19.578Z,0
2017-12-06T16:53:29.574Z,0
2017-12-06T16:54:39.288Z,0
2017-12-06T16:55:49.268Z,0
2017-12-06T16:56:59.268Z,0
2017-12-06T16:58:09.563Z,0
2017-12-06T16:59:19.549Z,0
2017-12-06T17:00:29.553Z,0